sensor_id;sensor_type;location;lat;lon;timestamp;P1;durP1;ratioP1;P2;durP2;ratioP2
54705;SDS011;40603;48.774;8.916;2023-02-28T00:02:15;1.73;;;1.27;;
54705;SDS011;40603;48.774;8.916;2023-02-28T00:04:42;7.32;;;2.38;;
54705;SDS011;40603;48.774;8.916;2023-02-28T00:07:08;2.58;;;1.55;;
54705;SDS011;40603;48.774;8.916;2023-02-28T00:09:33;3.88;;;2.15;;
54705;SDS011;40603;48.774;8.916;2023-02-28T00:11:58;6.00;;;2.13;;
54705;SDS011;40603;48.774;8.916;2023-02-28T00:14:24;4.45;;;1.48;;
54705;SDS011;40603;48.774;8.916;2023-02-28T00:16:49;4.07;;;2.10;;
54705;SDS011;40603;48.774;8.916;2023-02-28T00:19:14;5.82;;;1.75;;
54705;SDS011;40603;48.774;8.916;2023-02-28T00:21:39;4.07;;;1.83;;
54705;SDS011;40603;48.774;8.916;2023-02-28T00:24:05;5.07;;;2.15;;
54705;SDS011;40603;48.774;8.916;2023-02-28T00:26:31;5.15;;;1.70;;
54705;SDS011;40603;48.774;8.916;2023-02-28T00:28:56;2.38;;;1.98;;
54705;SDS011;40603;48.774;8.916;2023-02-28T00:31:22;4.28;;;1.92;;
54705;SDS011;40603;48.774;8.916;2023-02-28T00:33:47;3.90;;;1.92;;
54705;SDS011;40603;48.774;8.916;2023-02-28T00:36:12;2.25;;;1.63;;
54705;SDS011;40603;48.774;8.916;2023-02-28T00:38:38;6.97;;;2.00;;
54705;SDS011;40603;48.774;8.916;2023-02-28T00:41:04;6.22;;;2.20;;
54705;SDS011;40603;48.774;8.916;2023-02-28T00:43:30;3.35;;;1.90;;
54705;SDS011;40603;48.774;8.916;2023-02-28T00:45:59;5.45;;;1.80;;
54705;SDS011;40603;48.774;8.916;2023-02-28T00:48:24;3.58;;;2.13;;
54705;SDS011;40603;48.774;8.916;2023-02-28T00:50:50;3.63;;;2.40;;
54705;SDS011;40603;48.774;8.916;2023-02-28T00:53:15;3.88;;;1.90;;
54705;SDS011;40603;48.774;8.916;2023-02-28T00:55:40;3.45;;;1.88;;
54705;SDS011;40603;48.774;8.916;2023-02-28T00:58:06;3.70;;;2.10;;
54705;SDS011;40603;48.774;8.916;2023-02-28T01:00:31;5.15;;;1.80;;
54705;SDS011;40603;48.774;8.916;2023-02-28T01:02:56;3.83;;;2.17;;
54705;SDS011;40603;48.774;8.916;2023-02-28T01:05:21;3.55;;;2.08;;
54705;SDS011;40603;48.774;8.916;2023-02-28T01:07:47;3.75;;;2.15;;
54705;SDS011;40603;48.774;8.916;2023-02-28T01:10:12;3.45;;;1.90;;
54705;SDS011;40603;48.774;8.916;2023-02-28T01:12:37;4.45;;;2.00;;
54705;SDS011;40603;48.774;8.916;2023-02-28T01:15:03;1.88;;;1.50;;
54705;SDS011;40603;48.774;8.916;2023-02-28T01:17:29;3.95;;;1.95;;
54705;SDS011;40603;48.774;8.916;2023-02-28T01:19:54;5.45;;;2.17;;
54705;SDS011;40603;48.774;8.916;2023-02-28T01:22:20;5.40;;;2.08;;
54705;SDS011;40603;48.774;8.916;2023-02-28T01:24:46;2.92;;;1.67;;
54705;SDS011;40603;48.774;8.916;2023-02-28T01:27:11;6.28;;;2.88;;
54705;SDS011;40603;48.774;8.916;2023-02-28T01:29:37;5.38;;;1.92;;
54705;SDS011;40603;48.774;8.916;2023-02-28T01:32:02;3.72;;;2.20;;
54705;SDS011;40603;48.774;8.916;2023-02-28T01:34:27;5.82;;;2.60;;
54705;SDS011;40603;48.774;8.916;2023-02-28T01:36:52;3.33;;;2.20;;
54705;SDS011;40603;48.774;8.916;2023-02-28T01:39:18;5.03;;;2.50;;
54705;SDS011;40603;48.774;8.916;2023-02-28T01:41:43;4.03;;;2.55;;
54705;SDS011;40603;48.774;8.916;2023-02-28T01:47:11;3.53;;;2.28;;
54705;SDS011;40603;48.774;8.916;2023-02-28T01:49:37;5.28;;;2.50;;
54705;SDS011;40603;48.774;8.916;2023-02-28T01:52:02;4.35;;;2.42;;
54705;SDS011;40603;48.774;8.916;2023-02-28T01:54:29;4.32;;;2.30;;
54705;SDS011;40603;48.774;8.916;2023-02-28T01:56:57;5.75;;;2.60;;
54705;SDS011;40603;48.774;8.916;2023-02-28T01:59:33;6.25;;;2.53;;
54705;SDS011;40603;48.774;8.916;2023-02-28T02:02:01;5.85;;;2.60;;
54705;SDS011;40603;48.774;8.916;2023-02-28T02:04:27;3.72;;;2.28;;
54705;SDS011;40603;48.774;8.916;2023-02-28T02:06:59;4.88;;;2.70;;
54705;SDS011;40603;48.774;8.916;2023-02-28T02:09:24;6.03;;;2.47;;
54705;SDS011;40603;48.774;8.916;2023-02-28T02:11:50;4.85;;;2.55;;
54705;SDS011;40603;48.774;8.916;2023-02-28T02:14:25;3.92;;;2.17;;
54705;SDS011;40603;48.774;8.916;2023-02-28T02:17:01;3.50;;;2.33;;
54705;SDS011;40603;48.774;8.916;2023-02-28T02:22:47;4.80;;;3.05;;
54705;SDS011;40603;48.774;8.916;2023-02-28T02:33:10;7.25;;;3.25;;
54705;SDS011;40603;48.774;8.916;2023-02-28T02:38:33;5.03;;;2.83;;
54705;SDS011;40603;48.774;8.916;2023-02-28T02:43:57;6.90;;;3.10;;
54705;SDS011;40603;48.774;8.916;2023-02-28T02:46:26;5.32;;;2.75;;
54705;SDS011;40603;48.774;8.916;2023-02-28T02:48:55;6.25;;;2.92;;
54705;SDS011;40603;48.774;8.916;2023-02-28T02:51:22;5.53;;;2.92;;
54705;SDS011;40603;48.774;8.916;2023-02-28T02:53:49;6.97;;;2.60;;
54705;SDS011;40603;48.774;8.916;2023-02-28T02:56:18;6.15;;;3.00;;
54705;SDS011;40603;48.774;8.916;2023-02-28T02:58:45;5.68;;;3.05;;
54705;SDS011;40603;48.774;8.916;2023-02-28T03:01:14;4.40;;;2.80;;
54705;SDS011;40603;48.774;8.916;2023-02-28T03:03:42;7.03;;;2.97;;
54705;SDS011;40603;48.774;8.916;2023-02-28T03:06:08;5.28;;;2.58;;
54705;SDS011;40603;48.774;8.916;2023-02-28T03:08:34;5.85;;;3.30;;
54705;SDS011;40603;48.774;8.916;2023-02-28T03:11:02;8.20;;;3.25;;
54705;SDS011;40603;48.774;8.916;2023-02-28T03:21:40;5.85;;;2.95;;
54705;SDS011;40603;48.774;8.916;2023-02-28T03:24:24;4.97;;;3.08;;
54705;SDS011;40603;48.774;8.916;2023-02-28T03:27:04;4.57;;;2.97;;
54705;SDS011;40603;48.774;8.916;2023-02-28T03:29:41;4.10;;;2.63;;
54705;SDS011;40603;48.774;8.916;2023-02-28T03:32:15;5.47;;;3.22;;
54705;SDS011;40603;48.774;8.916;2023-02-28T03:35:00;6.65;;;3.35;;
54705;SDS011;40603;48.774;8.916;2023-02-28T03:37:30;7.65;;;2.78;;
54705;SDS011;40603;48.774;8.916;2023-02-28T03:39:58;5.15;;;2.92;;
54705;SDS011;40603;48.774;8.916;2023-02-28T03:42:29;5.20;;;3.05;;
54705;SDS011;40603;48.774;8.916;2023-02-28T03:45:38;5.45;;;3.28;;
54705;SDS011;40603;48.774;8.916;2023-02-28T03:47:53;6.80;;;2.80;;
54705;SDS011;40603;48.774;8.916;2023-02-28T03:50:21;10.32;;;3.28;;
54705;SDS011;40603;48.774;8.916;2023-02-28T03:58:04;4.32;;;2.90;;
54705;SDS011;40603;48.774;8.916;2023-02-28T04:00:46;5.35;;;3.00;;
54705;SDS011;40603;48.774;8.916;2023-02-28T04:03:35;5.95;;;3.08;;
54705;SDS011;40603;48.774;8.916;2023-02-28T04:06:01;11.07;;;3.67;;
54705;SDS011;40603;48.774;8.916;2023-02-28T04:08:26;5.68;;;3.28;;
54705;SDS011;40603;48.774;8.916;2023-02-28T04:10:55;5.25;;;3.10;;
54705;SDS011;40603;48.774;8.916;2023-02-28T04:13:22;6.07;;;3.50;;
54705;SDS011;40603;48.774;8.916;2023-02-28T04:15:48;5.60;;;3.30;;
54705;SDS011;40603;48.774;8.916;2023-02-28T04:18:13;8.93;;;3.65;;
54705;SDS011;40603;48.774;8.916;2023-02-28T04:20:38;5.03;;;3.65;;
54705;SDS011;40603;48.774;8.916;2023-02-28T04:23:04;5.00;;;3.65;;
54705;SDS011;40603;48.774;8.916;2023-02-28T04:25:29;6.50;;;3.35;;
54705;SDS011;40603;48.774;8.916;2023-02-28T04:27:54;9.63;;;3.67;;
54705;SDS011;40603;48.774;8.916;2023-02-28T04:30:19;5.32;;;3.80;;
54705;SDS011;40603;48.774;8.916;2023-02-28T04:32:45;5.55;;;3.42;;
54705;SDS011;40603;48.774;8.916;2023-02-28T04:35:10;5.28;;;3.22;;
54705;SDS011;40603;48.774;8.916;2023-02-28T04:37:35;4.72;;;3.60;;
54705;SDS011;40603;48.774;8.916;2023-02-28T04:40:02;6.88;;;3.53;;
54705;SDS011;40603;48.774;8.916;2023-02-28T04:42:28;5.07;;;3.30;;
54705;SDS011;40603;48.774;8.916;2023-02-28T04:45:00;7.78;;;3.60;;
54705;SDS011;40603;48.774;8.916;2023-02-28T04:47:25;5.82;;;3.45;;
54705;SDS011;40603;48.774;8.916;2023-02-28T04:49:50;6.82;;;4.03;;
54705;SDS011;40603;48.774;8.916;2023-02-28T04:52:15;6.68;;;3.92;;
54705;SDS011;40603;48.774;8.916;2023-02-28T04:54:41;6.40;;;4.05;;
54705;SDS011;40603;48.774;8.916;2023-02-28T04:57:06;6.10;;;3.92;;
54705;SDS011;40603;48.774;8.916;2023-02-28T04:59:31;5.35;;;3.60;;
54705;SDS011;40603;48.774;8.916;2023-02-28T05:01:57;8.77;;;3.88;;
54705;SDS011;40603;48.774;8.916;2023-02-28T05:04:23;10.25;;;4.18;;
54705;SDS011;40603;48.774;8.916;2023-02-28T05:06:48;6.22;;;4.10;;
54705;SDS011;40603;48.774;8.916;2023-02-28T05:09:13;5.25;;;3.70;;
54705;SDS011;40603;48.774;8.916;2023-02-28T05:11:38;9.45;;;4.78;;
54705;SDS011;40603;48.774;8.916;2023-02-28T05:14:05;7.45;;;3.85;;
54705;SDS011;40603;48.774;8.916;2023-02-28T05:16:34;5.40;;;3.45;;
54705;SDS011;40603;48.774;8.916;2023-02-28T05:18:59;5.72;;;3.78;;
54705;SDS011;40603;48.774;8.916;2023-02-28T05:21:35;8.02;;;4.25;;
54705;SDS011;40603;48.774;8.916;2023-02-28T05:24:03;7.93;;;3.47;;
54705;SDS011;40603;48.774;8.916;2023-02-28T05:26:41;7.38;;;4.13;;
54705;SDS011;40603;48.774;8.916;2023-02-28T05:29:07;8.90;;;4.07;;
54705;SDS011;40603;48.774;8.916;2023-02-28T05:31:34;10.88;;;4.78;;
54705;SDS011;40603;48.774;8.916;2023-02-28T05:33:59;6.57;;;3.83;;
54705;SDS011;40603;48.774;8.916;2023-02-28T05:36:24;7.35;;;4.45;;
54705;SDS011;40603;48.774;8.916;2023-02-28T05:38:50;9.15;;;4.47;;
54705;SDS011;40603;48.774;8.916;2023-02-28T05:41:15;6.20;;;3.85;;
54705;SDS011;40603;48.774;8.916;2023-02-28T05:43:41;8.98;;;4.53;;
54705;SDS011;40603;48.774;8.916;2023-02-28T05:46:07;7.32;;;3.80;;
54705;SDS011;40603;48.774;8.916;2023-02-28T05:48:34;6.50;;;4.20;;
54705;SDS011;40603;48.774;8.916;2023-02-28T05:51:01;7.28;;;4.65;;
54705;SDS011;40603;48.774;8.916;2023-02-28T05:53:27;6.97;;;4.07;;
54705;SDS011;40603;48.774;8.916;2023-02-28T05:55:52;6.43;;;4.05;;
54705;SDS011;40603;48.774;8.916;2023-02-28T05:58:18;13.35;;;4.72;;
54705;SDS011;40603;48.774;8.916;2023-02-28T06:00:43;8.63;;;4.50;;
54705;SDS011;40603;48.774;8.916;2023-02-28T06:03:09;8.55;;;4.25;;
54705;SDS011;40603;48.774;8.916;2023-02-28T06:05:34;8.80;;;4.57;;
54705;SDS011;40603;48.774;8.916;2023-02-28T06:07:59;8.88;;;4.18;;
54705;SDS011;40603;48.774;8.916;2023-02-28T06:10:24;7.25;;;3.95;;
54705;SDS011;40603;48.774;8.916;2023-02-28T06:12:50;7.35;;;4.60;;
54705;SDS011;40603;48.774;8.916;2023-02-28T06:15:15;8.70;;;4.95;;
54705;SDS011;40603;48.774;8.916;2023-02-28T06:17:42;7.75;;;4.57;;
54705;SDS011;40603;48.774;8.916;2023-02-28T06:20:08;7.20;;;4.40;;
54705;SDS011;40603;48.774;8.916;2023-02-28T06:22:35;9.23;;;4.65;;
54705;SDS011;40603;48.774;8.916;2023-02-28T06:25:00;10.63;;;4.65;;
54705;SDS011;40603;48.774;8.916;2023-02-28T06:27:26;8.15;;;4.80;;
54705;SDS011;40603;48.774;8.916;2023-02-28T06:29:53;7.75;;;4.40;;
54705;SDS011;40603;48.774;8.916;2023-02-28T06:32:19;8.05;;;4.35;;
54705;SDS011;40603;48.774;8.916;2023-02-28T06:34:44;10.50;;;5.05;;
54705;SDS011;40603;48.774;8.916;2023-02-28T06:37:09;8.25;;;5.03;;
54705;SDS011;40603;48.774;8.916;2023-02-28T06:39:35;8.57;;;5.32;;
54705;SDS011;40603;48.774;8.916;2023-02-28T06:42:00;8.38;;;4.68;;
54705;SDS011;40603;48.774;8.916;2023-02-28T06:44:25;9.48;;;5.40;;
54705;SDS011;40603;48.774;8.916;2023-02-28T06:46:51;6.75;;;4.55;;
54705;SDS011;40603;48.774;8.916;2023-02-28T06:49:16;12.85;;;5.53;;
54705;SDS011;40603;48.774;8.916;2023-02-28T06:51:42;10.68;;;4.88;;
54705;SDS011;40603;48.774;8.916;2023-02-28T06:54:10;8.75;;;5.03;;
54705;SDS011;40603;48.774;8.916;2023-02-28T06:56:35;8.88;;;4.93;;
54705;SDS011;40603;48.774;8.916;2023-02-28T06:59:01;10.10;;;4.55;;
54705;SDS011;40603;48.774;8.916;2023-02-28T07:01:26;12.57;;;5.45;;
54705;SDS011;40603;48.774;8.916;2023-02-28T07:03:52;7.60;;;4.57;;
54705;SDS011;40603;48.774;8.916;2023-02-28T07:06:19;9.10;;;5.00;;
54705;SDS011;40603;48.774;8.916;2023-02-28T07:08:45;9.63;;;5.13;;
54705;SDS011;40603;48.774;8.916;2023-02-28T07:11:10;8.27;;;4.68;;
54705;SDS011;40603;48.774;8.916;2023-02-28T07:13:35;9.70;;;5.65;;
54705;SDS011;40603;48.774;8.916;2023-02-28T07:16:02;10.05;;;4.78;;
54705;SDS011;40603;48.774;8.916;2023-02-28T07:18:29;9.45;;;4.85;;
54705;SDS011;40603;48.774;8.916;2023-02-28T07:20:55;9.15;;;5.05;;
54705;SDS011;40603;48.774;8.916;2023-02-28T07:23:20;9.00;;;5.30;;
54705;SDS011;40603;48.774;8.916;2023-02-28T07:25:46;11.32;;;5.90;;
54705;SDS011;40603;48.774;8.916;2023-02-28T07:28:12;11.73;;;5.13;;
54705;SDS011;40603;48.774;8.916;2023-02-28T07:30:38;11.60;;;5.43;;
54705;SDS011;40603;48.774;8.916;2023-02-28T07:33:03;7.97;;;5.15;;
54705;SDS011;40603;48.774;8.916;2023-02-28T07:35:29;9.13;;;4.70;;
54705;SDS011;40603;48.774;8.916;2023-02-28T07:37:54;9.27;;;5.20;;
54705;SDS011;40603;48.774;8.916;2023-02-28T07:40:20;10.10;;;5.18;;
54705;SDS011;40603;48.774;8.916;2023-02-28T07:42:46;9.80;;;4.93;;
54705;SDS011;40603;48.774;8.916;2023-02-28T07:45:11;8.60;;;5.28;;
54705;SDS011;40603;48.774;8.916;2023-02-28T07:47:40;13.95;;;5.80;;
54705;SDS011;40603;48.774;8.916;2023-02-28T07:50:07;10.13;;;5.10;;
54705;SDS011;40603;48.774;8.916;2023-02-28T07:52:34;9.40;;;5.63;;
54705;SDS011;40603;48.774;8.916;2023-02-28T07:55:01;11.00;;;5.30;;
54705;SDS011;40603;48.774;8.916;2023-02-28T07:57:26;9.88;;;5.15;;
54705;SDS011;40603;48.774;8.916;2023-02-28T07:59:51;9.88;;;5.50;;
54705;SDS011;40603;48.774;8.916;2023-02-28T08:02:17;13.50;;;5.35;;
54705;SDS011;40603;48.774;8.916;2023-02-28T08:04:43;9.95;;;5.18;;
54705;SDS011;40603;48.774;8.916;2023-02-28T08:07:09;9.75;;;5.50;;
54705;SDS011;40603;48.774;8.916;2023-02-28T08:09:37;10.05;;;5.03;;
54705;SDS011;40603;48.774;8.916;2023-02-28T08:12:03;9.40;;;5.25;;
54705;SDS011;40603;48.774;8.916;2023-02-28T08:14:29;10.75;;;5.25;;
54705;SDS011;40603;48.774;8.916;2023-02-28T08:16:54;9.82;;;4.88;;
54705;SDS011;40603;48.774;8.916;2023-02-28T08:19:20;11.75;;;6.00;;
54705;SDS011;40603;48.774;8.916;2023-02-28T08:21:45;10.40;;;5.47;;
54705;SDS011;40603;48.774;8.916;2023-02-28T08:24:10;14.00;;;5.32;;
54705;SDS011;40603;48.774;8.916;2023-02-28T08:26:35;12.27;;;5.53;;
54705;SDS011;40603;48.774;8.916;2023-02-28T08:29:01;13.10;;;6.28;;
54705;SDS011;40603;48.774;8.916;2023-02-28T08:31:26;13.35;;;5.80;;
54705;SDS011;40603;48.774;8.916;2023-02-28T08:33:51;9.02;;;5.18;;
54705;SDS011;40603;48.774;8.916;2023-02-28T08:36:18;11.50;;;5.20;;
54705;SDS011;40603;48.774;8.916;2023-02-28T08:38:44;10.38;;;5.85;;
54705;SDS011;40603;48.774;8.916;2023-02-28T08:41:10;13.02;;;5.60;;
54705;SDS011;40603;48.774;8.916;2023-02-28T08:43:36;15.05;;;5.80;;
54705;SDS011;40603;48.774;8.916;2023-02-28T08:46:02;9.18;;;5.35;;
54705;SDS011;40603;48.774;8.916;2023-02-28T08:48:28;11.05;;;5.50;;
54705;SDS011;40603;48.774;8.916;2023-02-28T08:50:55;10.60;;;5.25;;
54705;SDS011;40603;48.774;8.916;2023-02-28T08:53:30;11.07;;;5.70;;
54705;SDS011;40603;48.774;8.916;2023-02-28T08:56:00;7.70;;;5.38;;
54705;SDS011;40603;48.774;8.916;2023-02-28T08:58:35;11.70;;;6.07;;
54705;SDS011;40603;48.774;8.916;2023-02-28T09:01:00;11.88;;;5.95;;
54705;SDS011;40603;48.774;8.916;2023-02-28T09:03:32;11.98;;;5.47;;
54705;SDS011;40603;48.774;8.916;2023-02-28T09:05:58;11.57;;;6.22;;
54705;SDS011;40603;48.774;8.916;2023-02-28T09:08:25;12.05;;;6.32;;
54705;SDS011;40603;48.774;8.916;2023-02-28T09:10:51;9.45;;;5.72;;
54705;SDS011;40603;48.774;8.916;2023-02-28T09:13:17;11.55;;;6.13;;
54705;SDS011;40603;48.774;8.916;2023-02-28T09:15:43;11.13;;;5.68;;
54705;SDS011;40603;48.774;8.916;2023-02-28T09:18:08;11.27;;;6.10;;
54705;SDS011;40603;48.774;8.916;2023-02-28T09:20:33;9.52;;;5.70;;
54705;SDS011;40603;48.774;8.916;2023-02-28T09:22:59;9.82;;;5.82;;
54705;SDS011;40603;48.774;8.916;2023-02-28T09:25:24;12.07;;;6.38;;
54705;SDS011;40603;48.774;8.916;2023-02-28T09:27:50;10.85;;;5.72;;
54705;SDS011;40603;48.774;8.916;2023-02-28T09:30:15;11.88;;;6.78;;
54705;SDS011;40603;48.774;8.916;2023-02-28T09:32:41;15.68;;;6.57;;
54705;SDS011;40603;48.774;8.916;2023-02-28T09:35:06;11.18;;;6.25;;
54705;SDS011;40603;48.774;8.916;2023-02-28T09:37:38;9.95;;;5.57;;
54705;SDS011;40603;48.774;8.916;2023-02-28T09:40:03;10.40;;;6.25;;
54705;SDS011;40603;48.774;8.916;2023-02-28T09:42:32;11.82;;;6.50;;
54705;SDS011;40603;48.774;8.916;2023-02-28T09:44:58;13.13;;;7.10;;
54705;SDS011;40603;48.774;8.916;2023-02-28T09:47:36;12.02;;;6.20;;
54705;SDS011;40603;48.774;8.916;2023-02-28T09:52:51;9.20;;;5.78;;
54705;SDS011;40603;48.774;8.916;2023-02-28T09:57:43;14.18;;;6.70;;
54705;SDS011;40603;48.774;8.916;2023-02-28T10:05:30;14.05;;;7.30;;
54705;SDS011;40603;48.774;8.916;2023-02-28T10:08:08;11.98;;;6.95;;
54705;SDS011;40603;48.774;8.916;2023-02-28T10:10:39;9.88;;;6.38;;
54705;SDS011;40603;48.774;8.916;2023-02-28T10:13:13;10.98;;;6.60;;
54705;SDS011;40603;48.774;8.916;2023-02-28T10:15:41;11.93;;;6.47;;
54705;SDS011;40603;48.774;8.916;2023-02-28T10:18:11;11.20;;;6.50;;
54705;SDS011;40603;48.774;8.916;2023-02-28T10:20:39;14.15;;;6.70;;
54705;SDS011;40603;48.774;8.916;2023-02-28T10:26:01;13.23;;;6.95;;
54705;SDS011;40603;48.774;8.916;2023-02-28T10:28:33;10.45;;;6.30;;
54705;SDS011;40603;48.774;8.916;2023-02-28T10:30:58;10.98;;;6.55;;
54705;SDS011;40603;48.774;8.916;2023-02-28T10:35:56;10.77;;;6.60;;
54705;SDS011;40603;48.774;8.916;2023-02-28T10:38:26;15.20;;;6.80;;
54705;SDS011;40603;48.774;8.916;2023-02-28T10:40:57;11.52;;;6.35;;
54705;SDS011;40603;48.774;8.916;2023-02-28T10:43:28;13.32;;;5.88;;
54705;SDS011;40603;48.774;8.916;2023-02-28T10:45:55;10.32;;;6.22;;
54705;SDS011;40603;48.774;8.916;2023-02-28T10:48:27;11.10;;;6.43;;
54705;SDS011;40603;48.774;8.916;2023-02-28T10:51:11;12.35;;;6.68;;
54705;SDS011;40603;48.774;8.916;2023-02-28T11:01:15;10.82;;;6.30;;
54705;SDS011;40603;48.774;8.916;2023-02-28T11:03:42;11.07;;;6.05;;
54705;SDS011;40603;48.774;8.916;2023-02-28T11:06:12;12.88;;;6.45;;
54705;SDS011;40603;48.774;8.916;2023-02-28T11:08:53;10.52;;;6.28;;
54705;SDS011;40603;48.774;8.916;2023-02-28T11:11:20;10.18;;;6.32;;
54705;SDS011;40603;48.774;8.916;2023-02-28T11:13:46;11.05;;;6.28;;
54705;SDS011;40603;48.774;8.916;2023-02-28T11:16:12;11.52;;;6.85;;
54705;SDS011;40603;48.774;8.916;2023-02-28T11:18:40;12.43;;;6.63;;
54705;SDS011;40603;48.774;8.916;2023-02-28T11:21:06;14.05;;;6.55;;
54705;SDS011;40603;48.774;8.916;2023-02-28T11:23:33;11.77;;;6.95;;
54705;SDS011;40603;48.774;8.916;2023-02-28T11:26:00;11.48;;;7.47;;
54705;SDS011;40603;48.774;8.916;2023-02-28T11:28:28;11.23;;;6.47;;
54705;SDS011;40603;48.774;8.916;2023-02-28T11:36:18;12.68;;;7.03;;
54705;SDS011;40603;48.774;8.916;2023-02-28T11:38:49;12.10;;;7.55;;
54705;SDS011;40603;48.774;8.916;2023-02-28T11:44:32;10.73;;;6.40;;
54705;SDS011;40603;48.774;8.916;2023-02-28T11:47:03;12.40;;;6.90;;
54705;SDS011;40603;48.774;8.916;2023-02-28T11:49:46;9.50;;;6.32;;
54705;SDS011;40603;48.774;8.916;2023-02-28T11:52:38;11.02;;;6.95;;
54705;SDS011;40603;48.774;8.916;2023-02-28T11:58:28;12.55;;;6.72;;
54705;SDS011;40603;48.774;8.916;2023-02-28T12:03:55;13.45;;;7.97;;
54705;SDS011;40603;48.774;8.916;2023-02-28T12:09:21;13.32;;;6.60;;
54705;SDS011;40603;48.774;8.916;2023-02-28T12:28:59;14.05;;;7.22;;
54705;SDS011;40603;48.774;8.916;2023-02-28T12:31:29;12.55;;;7.40;;
54705;SDS011;40603;48.774;8.916;2023-02-28T12:33:59;12.73;;;7.45;;
54705;SDS011;40603;48.774;8.916;2023-02-28T12:36:26;12.93;;;7.18;;
54705;SDS011;40603;48.774;8.916;2023-02-28T12:38:55;10.68;;;7.00;;
54705;SDS011;40603;48.774;8.916;2023-02-28T12:44:12;10.35;;;6.45;;
54705;SDS011;40603;48.774;8.916;2023-02-28T12:46:59;13.13;;;6.72;;
54705;SDS011;40603;48.774;8.916;2023-02-28T12:49:31;12.45;;;6.95;;
54705;SDS011;40603;48.774;8.916;2023-02-28T12:51:59;12.63;;;7.43;;
54705;SDS011;40603;48.774;8.916;2023-02-28T12:54:28;12.13;;;7.20;;
54705;SDS011;40603;48.774;8.916;2023-02-28T12:59:41;11.32;;;6.88;;
54705;SDS011;40603;48.774;8.916;2023-02-28T13:08:15;15.23;;;6.95;;
54705;SDS011;40603;48.774;8.916;2023-02-28T13:13:13;11.85;;;6.80;;
54705;SDS011;40603;48.774;8.916;2023-02-28T13:15:40;11.57;;;6.50;;
54705;SDS011;40603;48.774;8.916;2023-02-28T13:18:19;12.10;;;6.68;;
54705;SDS011;40603;48.774;8.916;2023-02-28T13:20:56;11.25;;;6.75;;
54705;SDS011;40603;48.774;8.916;2023-02-28T13:26:08;12.45;;;6.63;;
54705;SDS011;40603;48.774;8.916;2023-02-28T13:31:22;9.25;;;6.25;;
54705;SDS011;40603;48.774;8.916;2023-02-28T13:38:45;11.55;;;6.65;;
54705;SDS011;40603;48.774;8.916;2023-02-28T13:43:59;12.63;;;6.78;;
54705;SDS011;40603;48.774;8.916;2023-02-28T13:46:34;11.13;;;6.60;;
54705;SDS011;40603;48.774;8.916;2023-02-28T13:51:51;12.93;;;6.97;;
54705;SDS011;40603;48.774;8.916;2023-02-28T13:54:33;9.25;;;6.22;;
54705;SDS011;40603;48.774;8.916;2023-02-28T13:57:23;11.83;;;6.10;;
54705;SDS011;40603;48.774;8.916;2023-02-28T14:05:45;11.98;;;6.53;;
54705;SDS011;40603;48.774;8.916;2023-02-28T14:08:18;9.70;;;6.78;;
54705;SDS011;40603;48.774;8.916;2023-02-28T14:10:47;9.60;;;5.93;;
54705;SDS011;40603;48.774;8.916;2023-02-28T14:16:09;10.77;;;6.63;;
54705;SDS011;40603;48.774;8.916;2023-02-28T14:18:36;9.52;;;6.03;;
54705;SDS011;40603;48.774;8.916;2023-02-28T14:21:22;11.13;;;6.05;;
54705;SDS011;40603;48.774;8.916;2023-02-28T14:27:31;12.52;;;6.65;;
54705;SDS011;40603;48.774;8.916;2023-02-28T14:32:51;9.40;;;6.47;;
54705;SDS011;40603;48.774;8.916;2023-02-28T14:35:40;12.40;;;6.93;;
54705;SDS011;40603;48.774;8.916;2023-02-28T14:38:17;10.65;;;6.43;;
54705;SDS011;40603;48.774;8.916;2023-02-28T14:40:46;10.73;;;6.50;;
54705;SDS011;40603;48.774;8.916;2023-02-28T14:43:23;13.35;;;7.07;;
54705;SDS011;40603;48.774;8.916;2023-02-28T14:45:51;10.93;;;6.38;;
54705;SDS011;40603;48.774;8.916;2023-02-28T14:48:18;9.65;;;6.55;;
54705;SDS011;40603;48.774;8.916;2023-02-28T14:50:48;13.02;;;6.55;;
54705;SDS011;40603;48.774;8.916;2023-02-28T14:55:43;10.20;;;5.97;;
54705;SDS011;40603;48.774;8.916;2023-02-28T14:58:20;11.45;;;6.68;;
54705;SDS011;40603;48.774;8.916;2023-02-28T15:00:50;14.68;;;6.07;;
54705;SDS011;40603;48.774;8.916;2023-02-28T15:03:18;15.23;;;6.57;;
54705;SDS011;40603;48.774;8.916;2023-02-28T15:05:51;11.40;;;6.65;;
54705;SDS011;40603;48.774;8.916;2023-02-28T15:08:20;9.90;;;6.90;;
54705;SDS011;40603;48.774;8.916;2023-02-28T15:10:56;9.18;;;6.07;;
54705;SDS011;40603;48.774;8.916;2023-02-28T15:16:12;10.35;;;6.63;;
54705;SDS011;40603;48.774;8.916;2023-02-28T15:21:15;11.60;;;6.68;;
54705;SDS011;40603;48.774;8.916;2023-02-28T15:23:43;11.85;;;6.45;;
54705;SDS011;40603;48.774;8.916;2023-02-28T15:26:14;11.45;;;7.30;;
54705;SDS011;40603;48.774;8.916;2023-02-28T15:28:41;12.55;;;6.70;;
54705;SDS011;40603;48.774;8.916;2023-02-28T15:31:18;12.25;;;7.22;;
54705;SDS011;40603;48.774;8.916;2023-02-28T15:33:58;11.63;;;6.47;;
54705;SDS011;40603;48.774;8.916;2023-02-28T15:36:29;11.95;;;7.47;;
54705;SDS011;40603;48.774;8.916;2023-02-28T15:38:58;8.75;;;6.15;;
54705;SDS011;40603;48.774;8.916;2023-02-28T15:41:29;15.35;;;6.95;;
54705;SDS011;40603;48.774;8.916;2023-02-28T15:44:15;9.32;;;6.43;;
54705;SDS011;40603;48.774;8.916;2023-02-28T15:46:55;9.43;;;6.40;;
54705;SDS011;40603;48.774;8.916;2023-02-28T15:49:23;13.57;;;7.28;;
54705;SDS011;40603;48.774;8.916;2023-02-28T15:51:49;9.25;;;6.70;;
54705;SDS011;40603;48.774;8.916;2023-02-28T15:54:49;10.73;;;6.80;;
54705;SDS011;40603;48.774;8.916;2023-02-28T15:57:07;10.38;;;5.93;;
54705;SDS011;40603;48.774;8.916;2023-02-28T15:59:42;10.15;;;6.22;;
54705;SDS011;40603;48.774;8.916;2023-02-28T16:02:16;11.43;;;7.45;;
54705;SDS011;40603;48.774;8.916;2023-02-28T16:07:33;10.15;;;6.75;;
54705;SDS011;40603;48.774;8.916;2023-02-28T16:09:59;12.07;;;7.50;;
54705;SDS011;40603;48.774;8.916;2023-02-28T16:12:34;10.48;;;6.82;;
54705;SDS011;40603;48.774;8.916;2023-02-28T16:15:35;11.57;;;7.07;;
54705;SDS011;40603;48.774;8.916;2023-02-28T16:17:54;10.73;;;6.88;;
54705;SDS011;40603;48.774;8.916;2023-02-28T16:20:21;10.95;;;7.00;;
54705;SDS011;40603;48.774;8.916;2023-02-28T16:22:48;9.25;;;6.18;;
54705;SDS011;40603;48.774;8.916;2023-02-28T16:25:18;12.73;;;7.40;;
54705;SDS011;40603;48.774;8.916;2023-02-28T16:27:46;12.93;;;6.95;;
54705;SDS011;40603;48.774;8.916;2023-02-28T16:30:24;11.38;;;6.97;;
54705;SDS011;40603;48.774;8.916;2023-02-28T16:32:50;13.05;;;7.28;;
54705;SDS011;40603;48.774;8.916;2023-02-28T16:35:16;11.68;;;7.50;;
54705;SDS011;40603;48.774;8.916;2023-02-28T16:37:42;11.10;;;7.28;;
54705;SDS011;40603;48.774;8.916;2023-02-28T16:40:18;13.05;;;6.78;;
54705;SDS011;40603;48.774;8.916;2023-02-28T16:42:46;10.90;;;6.47;;
54705;SDS011;40603;48.774;8.916;2023-02-28T16:45:19;14.65;;;7.03;;
54705;SDS011;40603;48.774;8.916;2023-02-28T16:47:46;21.17;;;10.82;;
54705;SDS011;40603;48.774;8.916;2023-02-28T16:50:13;18.00;;;9.48;;
54705;SDS011;40603;48.774;8.916;2023-02-28T16:52:40;14.20;;;7.68;;
54705;SDS011;40603;48.774;8.916;2023-02-28T16:55:06;12.57;;;7.53;;
54705;SDS011;40603;48.774;8.916;2023-02-28T16:57:31;13.05;;;6.72;;
54705;SDS011;40603;48.774;8.916;2023-02-28T16:59:56;13.48;;;6.95;;
54705;SDS011;40603;48.774;8.916;2023-02-28T17:02:22;13.23;;;7.35;;
54705;SDS011;40603;48.774;8.916;2023-02-28T17:04:47;12.50;;;7.25;;
54705;SDS011;40603;48.774;8.916;2023-02-28T17:07:13;10.65;;;6.82;;
54705;SDS011;40603;48.774;8.916;2023-02-28T17:09:40;12.02;;;7.60;;
54705;SDS011;40603;48.774;8.916;2023-02-28T17:12:06;13.88;;;7.95;;
54705;SDS011;40603;48.774;8.916;2023-02-28T17:14:31;11.40;;;7.00;;
54705;SDS011;40603;48.774;8.916;2023-02-28T17:16:57;15.02;;;7.20;;